Main page
METAR-TAF:

METAR-TAF

Airports :

Barkley Regional Airport

Paducah, Kentucky, United States

latitude: 37-03-23N, longitude: 088-46-26W, elevation: 410 ft

Current weather observation

The report was made 33 minutes ago, at 01:53 UTC
Wind 5 mph from the Southeast
Temperature 81°F
Humidity 66%
Pressure 29.92 in. Hg
Visibility: 10 miles
Clear sky

METAR: KPAH 250153Z 14004KT 10SM CLR 27/20 A2992 RMK AO2 SLP126 T02670200

Time: 21:26 (02:26 UTC)

Forecast

The report was made 3 hours and 6 minutes ago, at 23:20 UTC
Forecast valid from 25 at 00 UTC to 25 at 24 UTC
Wind 2 mph from variable directions
Visibility: 6 miles
Clear sky
From 25 at 1400 UTC
Wind 8 mph from the South/Southwest
Visibility: 6 miles
Few clouds at a height of 25000 ft

TAF: KPAH 242320Z 2500/2524 VRB02KT P6SM SKC FM251400 20007KT P6SM FEW250

Weather observations and forecasts of more than 4000 airports (METAR and TAF reports).

The available stations are represented by yellow and red dots on the map.

Hover mouse over dot to see the name of the station.

Then click to see weather observations and forecasts.

To change the map : click on the green buttons with a black cross to zoom in, on the green button with a dash to zoom out, or on the green arrows for adjacent maps.


METAR-TAF: